Time;durP1;ratioP1;P1;durP2;ratioP2;P2;SDS_P1;SDS_P2;PMS_P1;PMS_P2;Temp;Humidity;BMP_temperature;BMP_pressure;BME280_temperature;BME280_humidity;BME280_pressure;Samples;Min_cycle;Max_cycle;Signal;HPM_P1;HPM_P2
2021/07/17 00:31:59;;;;;;;;;;;;;;;;;;;;;
2021/07/17 00:38:33;;;;;;;17.20;13.60;;;;;;;20.36;83.37;98601.38;260788;1093;25887;-70
2021/07/17 00:45:27;;;;;;;17.33;13.63;;;;;;;20.33;83.24;98588.50;260737;1092;22946;-72
2021/07/17 00:52:00;;;;;;;;;;;;;;;;;;;;;
2021/07/17 00:59:04;;;;;;;20.20;13.73;;;;;;;20.16;83.36;98597.84;261776;1092;22811;-70
2021/07/17 01:06:05;;;;;;;;;;;;;;;;;;;;;
2021/07/17 01:13:30;;;;;;;15.40;13.25;;;;;;;20.12;84.34;98600.51;260652;1093;22848;-69
2021/07/17 01:20:08;;;;;;;18.97;13.23;;;;;;;20.10;84.29;98615.59;261756;1092;22838;-72
2021/07/17 01:33:21;;;;;;;16.20;13.10;;;;;;;20.12;84.71;98611.38;260726;1093;22828;-70
2021/07/17 01:40:17;;;;;;;;;;;;;;;;;;;;;
2021/07/17 01:59:45;;;;;;;;;;;;;;;;;;;;;
2021/07/17 02:13:37;;;;;;;17.20;13.40;;;;;;;20.10;85.11;98608.22;261767;1093;26703;-71
2021/07/17 02:20:22;;;;;;;17.67;12.87;;;;;;;20.04;85.11;98609.65;260776;1093;22785;-70
2021/07/17 02:27:29;;;;;;;19.03;13.93;;;;;;;19.98;85.14;98603.70;260777;1093;22795;-71
2021/07/17 02:34:21;;;;;;;14.87;12.30;;;;;;;19.98;85.51;98606.42;260559;1092;22956;-70
2021/07/17 02:40:56;;;;;;;;;;;;;;;;;;;;;
2021/07/17 02:47:27;;;;;;;15.03;12.33;;;;;;;20.13;85.58;98623.84;260806;1091;22886;-70
2021/07/17 02:54:30;;;;;;;14.60;11.60;;;;;;;20.11;85.02;98603.59;261350;1092;22956;-70
2021/07/17 03:01:34;;;;;;;16.10;12.10;;;;;;;20.04;85.08;98611.59;261420;1093;22826;-70
2021/07/17 03:07:46;;;;;;;;;;;;;;;;;;;;;
2021/07/17 03:14:52;;;;;;;14.90;12.33;;;;;;;20.02;85.73;98600.27;261424;1093;22950;-70
2021/07/17 03:21:36;;;;;;;;;;;;;;;;;;;;;
2021/07/17 03:28:35;;;;;;;18.43;13.37;;;;;;;20.05;85.39;98596.83;260708;1093;27767;-70
2021/07/17 03:35:29;;;;;;;;;;;;;;;;;;;;;
2021/07/17 03:49:38;;;;;;;;;;;;;;;;;;;;;
2021/07/17 03:56:43;;;;;;;;;;;;;;;;;;;;;
2021/07/17 04:03:33;;;;;;;18.43;12.03;;;;;;;20.17;84.83;98616.55;261828;1091;22828;-70
2021/07/17 04:17:00;;;;;;;17.50;11.70;;;;;;;20.47;85.09;98632.31;261484;1093;22835;-71
2021/07/17 04:30:51;;;;;;;15.63;11.70;;;;;;;20.70;84.97;98622.66;260609;1093;26312;-70
2021/07/17 04:37:49;;;;;;;18.45;12.10;;;;;;;20.82;84.39;98628.73;261516;1093;22795;-69
2021/07/17 04:43:56;;;;;;;;;;;;;;;;;;;;;
2021/07/17 04:50:02;;;;;;;;;;;;;;;;;;;;;
2021/07/17 04:56:01;;;;;;;16.95;14.40;;;;;;;21.13;83.57;98645.23;262172;1093;22880;-70
2021/07/17 05:02:50;;;;;;;;;;;;;;;;;;;;;
2021/07/17 05:09:24;;;;;;;14.98;11.45;;;;;;;21.41;82.69;98641.43;261780;1093;22857;-70
2021/07/17 05:15:36;;;;;;;14.30;11.65;;;;;;;21.62;82.57;98633.62;261883;1093;22955;-70
2021/07/17 05:22:00;;;;;;;18.48;14.25;;;;;;;21.88;83.03;98627.39;260760;1093;22879;-70
2021/07/17 05:28:22;;;;;;;;;;;;;;;;;;;;;
2021/07/17 05:34:28;;;;;;;15.20;11.38;;;;;;;22.33;81.42;98615.88;260838;1092;22830;-70
2021/07/17 05:41:00;;;;;;;;;;;;;;;;;;;;;
2021/07/17 05:47:43;;;;;;;14.33;11.33;;;;;;;22.58;80.85;98610.77;261675;1092;22788;-70
2021/07/17 05:53:42;;;;;;;13.13;11.13;;;;;;;22.75;80.53;98620.31;261698;1092;22779;-69
2021/07/17 05:59:21;;;;;;;17.77;13.13;;;;;;;22.88;80.24;98627.07;261803;1093;22806;-70
2021/07/17 06:05:17;;;;;;;15.55;11.68;;;;;;;23.06;80.38;98640.91;260759;1092;23369;-69
2021/07/17 06:10:45;;;;;;;19.75;14.73;;;;;;;23.28;79.52;98660.28;261743;1093;22872;-70
2021/07/17 06:16:09;;;;;;;16.67;12.60;;;;;;;23.49;79.23;98661.61;260861;1093;24378;-71
2021/07/17 06:22:11;;;;;;;15.38;10.60;;;;;;;23.71;78.79;98654.37;261796;1093;22829;-70
2021/07/17 06:28:23;;;;;;;11.20;9.98;;;;;;;23.89;77.37;98652.56;261810;1092;22870;-70
2021/07/17 06:34:04;;;;;;;13.05;10.20;;;;;;;23.97;77.12;98650.67;260968;1093;22801;-69
2021/07/17 06:39:46;;;;;;;;;;;;;;;;;;;;;
2021/07/17 06:44:55;;;;;;;11.35;9.35;;;;;;;24.14;76.07;98657.42;262500;1091;22829;-70
2021/07/17 06:50:02;;;;;;;10.27;9.10;;;;;;;24.19;75.26;98650.78;262229;1093;22811;-71
2021/07/17 06:55:32;;;;;;;10.83;8.95;;;;;;;24.36;75.31;98658.31;262336;1092;22833;-70
2021/07/17 07:01:03;;;;;;;;;;;;;;;;;;;;;
2021/07/17 07:14:56;;;;;;;10.50;7.85;;;;;;;24.84;72.89;98653.83;261904;1093;28936;-70
2021/07/17 07:21:35;;;;;;;10.83;7.98;;;;;;;25.08;71.68;98635.87;262005;1093;22808;-70
2021/07/17 07:27:47;;;;;;;;;;;;;;;;;;;;;
2021/07/17 07:33:11;;;;;;;12.05;8.10;;;;;;;25.48;70.88;98639.45;262760;1093;22822;-70
2021/07/17 07:39:24;;;;;;;10.57;7.60;;;;;;;25.52;70.07;98634.75;263098;1093;22838;-70
2021/07/17 07:46:34;;;;;;;8.90;7.43;;;;;;;25.59;69.59;98636.72;262672;1092;26276;-70
2021/07/17 07:53:22;;;;;;;8.50;7.23;;;;;;;26.01;69.31;98643.34;262627;1092;22957;-70
2021/07/17 08:00:01;;;;;;;;;;;;;;;;;;;;;
2021/07/17 08:06:39;;;;;;;9.45;8.55;;;;;;;26.18;67.28;98638.98;261969;1092;26322;-71
2021/07/17 08:13:34;;;;;;;;;;;;;;;;;;;;;
2021/07/17 08:20:30;;;;;;;9.50;7.13;;;;;;;26.25;65.98;98652.68;262023;1093;23682;-69
2021/07/17 08:27:08;;;;;;;;;;;;;;;;;;;;;
2021/07/17 08:34:06;;;;;;;;;;;;;;;;;;;;;
2021/07/17 08:41:01;;;;;;;7.70;6.30;;;;;;;26.68;63.24;98659.98;261670;1093;22855;-71
2021/07/17 08:47:51;;;;;;;7.30;6.60;;;;;;;26.97;63.11;98655.14;262180;1092;22936;-70
2021/07/17 08:54:19;;;;;;;8.48;7.00;;;;;;;27.02;62.38;98653.16;262016;1092;22815;-71
2021/07/17 09:01:23;;;;;;;8.93;7.68;;;;;;;27.14;61.77;98644.41;261865;1093;22832;-71
2021/07/17 09:22:33;;;;;;;9.05;8.15;;;;;;;27.35;60.91;98640.75;261836;1093;23670;-71
2021/07/17 09:29:38;;;;;;;8.03;7.33;;;;;;;27.46;60.20;98638.72;262297;1093;22818;-70
2021/07/17 09:36:16;;;;;;;;;;;;;;;;;;;;;
2021/07/17 09:42:52;;;;;;;;;;;;;;;;;;;;;
2021/07/17 09:49:06;;;;;;;11.08;8.53;;;;;;;28.29;58.45;98640.66;262098;1093;22885;-70
2021/07/17 09:55:41;;;;;;;8.63;7.75;;;;;;;28.77;57.22;98641.66;260635;1093;25865;-70
2021/07/17 10:02:39;;;;;;;7.85;6.98;;;;;;;29.06;56.94;98640.45;262037;1093;25861;-69
2021/07/17 10:09:42;;;;;;;10.55;7.70;;;;;;;29.36;55.53;98634.11;262077;1093;22792;-69
2021/07/17 10:15:33;;;;;;;12.35;8.33;;;;;;;29.51;54.09;98629.15;260686;1092;22815;-70
2021/07/17 10:35:25;;;;;;;;;;;;;;;;;;;;;
2021/07/17 10:42:19;;;;;;;;;;;;;;;;;;;;;
2021/07/17 10:56:33;;;;;;;10.35;9.45;;;;;;;30.35;51.67;98596.05;260429;1093;22796;-69
2021/07/17 11:03:43;;;;;;;13.73;12.53;;;;;;;30.60;50.56;98595.53;260579;1093;24368;-69
2021/07/17 11:10:30;;;;;;;;;;;;;;;;;;;;;
2021/07/17 11:17:41;;;;;;;13.50;12.18;;;;;;;30.77;50.26;98585.27;259798;1093;22873;-69
2021/07/17 11:23:53;;;;;;;13.43;12.25;;;;;;;30.44;50.60;98582.44;260868;1093;27261;-69
2021/07/17 11:29:53;;;;;;;14.00;12.83;;;;;;;30.33;50.21;98576.34;260944;1093;22793;-69
2021/07/17 11:35:29;;;;;;;14.35;13.05;;;;;;;30.32;49.99;98567.28;261072;1092;25976;-68
2021/07/17 11:41:19;;;;;;;13.88;12.68;;;;;;;30.53;50.09;98570.82;260837;1093;22771;-70
2021/07/17 11:46:23;;;;;;;13.08;11.85;;;;;;;30.45;49.79;98570.19;261208;1093;23361;-68
2021/07/17 11:51:27;;;;;;;13.53;12.30;;;;;;;30.48;50.25;98563.03;260977;1092;22857;-68
2021/07/17 11:56:36;;;;;;;13.28;12.00;;;;;;;30.61;49.86;98565.89;261169;1093;22812;-69
2021/07/17 12:02:11;;;;;;;13.60;12.45;;;;;;;30.63;49.95;98569.02;260982;1092;22801;-69
2021/07/17 12:07:28;;;;;;;13.05;11.75;;;;;;;30.65;49.68;98575.66;261006;1093;26264;-71
2021/07/17 12:12:54;;;;;;;12.18;10.98;;;;;;;30.76;49.86;98555.30;261032;1093;24486;-69
2021/07/17 12:18:07;;;;;;;12.55;11.55;;;;;;;30.99;49.89;98554.34;260877;1093;22794;-70
2021/07/17 12:23:11;;;;;;;12.63;11.33;;;;;;;31.10;49.21;98541.05;261075;1093;22933;-69
2021/07/17 12:28:21;;;;;;;12.35;11.15;;;;;;;31.20;49.12;98548.32;260921;1093;25473;-69
2021/07/17 12:33:33;;;;;;;12.60;11.40;;;;;;;31.15;48.74;98535.00;261111;1093;22792;-68
2021/07/17 12:38:50;;;;;;;13.73;12.43;;;;;;;30.98;49.26;98528.69;261085;1093;26299;-68
2021/07/17 12:44:15;;;;;;;13.38;12.00;;;;;;;30.92;48.93;98526.86;260900;1093;23559;-68
2021/07/17 12:49:21;;;;;;;12.65;11.23;;;;;;;30.86;48.93;98521.88;260924;1093;24336;-68
2021/07/17 12:54:28;;;;;;;13.58;12.30;;;;;;;30.86;48.97;98519.11;261263;1093;25887;-68
2021/07/17 12:59:39;;;;;;;12.80;11.78;;;;;;;30.82;49.16;98515.65;261090;1092;25890;-69
2021/07/17 13:04:53;;;;;;;13.53;12.33;;;;;;;30.79;49.57;98504.67;260927;1093;22797;-68
2021/07/17 13:10:07;;;;;;;13.18;11.98;;;;;;;30.68;48.30;98496.63;261037;1093;22805;-69
2021/07/17 13:15:27;;;;;;;14.15;12.70;;;;;;;30.50;48.64;98486.78;260907;1093;22819;-69
2021/07/17 13:21:24;;;;;;;14.75;13.35;;;;;;;30.32;48.41;98480.87;260884;1093;25887;-68
2021/07/17 13:26:40;;;;;;;14.45;13.05;;;;;;;30.20;49.51;98465.73;261083;1093;22854;-68
2021/07/17 13:32:00;;;;;;;14.25;12.83;;;;;;;30.24;49.67;98466.42;261047;1093;22948;-68
2021/07/17 13:37:10;;;;;;;14.18;12.78;;;;;;;30.32;49.92;98465.06;260840;1093;22953;-68
2021/07/17 13:42:23;;;;;;;13.75;12.40;;;;;;;30.38;49.09;98466.09;260940;1093;24263;-69
2021/07/17 13:48:00;;;;;;;13.88;12.50;;;;;;;30.41;48.56;98458.16;260901;1093;25620;-69
2021/07/17 13:54:17;;;;;;;13.68;12.45;;;;;;;30.53;49.06;98458.28;260886;1093;26257;-69
2021/07/17 14:00:08;;;;;;;14.20;12.80;;;;;;;30.58;48.96;98453.45;260699;1091;22808;-68
2021/07/17 14:05:27;;;;;;;13.75;12.48;;;;;;;30.59;48.48;98455.02;260952;1092;23858;-70
2021/07/17 14:10:34;;;;;;;15.53;13.80;;;;;;;30.53;48.44;98449.99;261074;1093;24123;-69
2021/07/17 14:15:39;;;;;;;14.55;13.08;;;;;;;30.53;48.77;98444.47;260998;1093;25886;-68
2021/07/17 14:20:43;;;;;;;14.90;13.60;;;;;;;30.53;48.09;98441.70;260992;1092;24190;-68
2021/07/17 14:25:51;;;;;;;15.03;13.55;;;;;;;30.68;48.58;98444.11;260884;1093;22882;-69
2021/07/17 14:30:59;;;;;;;14.10;12.73;;;;;;;30.80;49.09;98435.11;260886;1093;22823;-69
2021/07/17 14:36:30;;;;;;;14.50;13.20;;;;;;;30.91;48.57;98440.38;260836;1093;25864;-68
2021/07/17 14:41:43;;;;;;;14.50;13.08;;;;;;;30.95;48.97;98443.03;261051;1093;22873;-69
2021/07/17 14:47:02;;;;;;;14.23;12.90;;;;;;;31.14;49.12;98431.09;260917;1093;22839;-70
2021/07/17 14:52:33;;;;;;;13.78;12.48;;;;;;;31.52;48.55;98426.91;261764;1093;26375;-68
2021/07/17 14:58:00;;;;;;;13.33;12.08;;;;;;;31.67;47.42;98416.23;260943;1093;22828;-69
2021/07/17 15:03:25;;;;;;;13.73;12.20;;;;;;;31.64;47.10;98423.42;261027;1093;22805;-69
2021/07/17 15:08:59;;;;;;;14.55;13.05;;;;;;;31.55;47.45;98421.27;260955;1093;22880;-67
2021/07/17 15:14:08;;;;;;;13.83;12.35;;;;;;;31.37;47.27;98415.48;260926;1093;22873;-68
2021/07/17 15:19:58;;;;;;;13.40;12.20;;;;;;;31.14;47.49;98402.67;261175;1093;22795;-70
2021/07/17 15:25:41;;;;;;;14.00;12.50;;;;;;;31.00;47.36;98401.03;261073;1093;26309;-68
2021/07/17 15:31:28;;;;;;;13.68;12.38;;;;;;;30.92;47.63;98400.46;261003;1093;24078;-68
2021/07/17 15:36:35;;;;;;;14.50;13.10;;;;;;;30.72;47.69;98408.86;261004;1092;22792;-70
2021/07/17 15:42:21;;;;;;;16.03;14.63;;;;;;;30.77;48.41;98402.05;260943;1093;22825;-68
2021/07/17 15:47:53;;;;;;;15.88;14.48;;;;;;;30.98;49.14;98407.00;260957;1093;22956;-69
2021/07/17 15:54:15;;;;;;;;;;;;;;;;;;;;;
2021/07/17 16:00:07;;;;;;;15.23;13.80;;;;;;;30.87;48.19;98392.69;260714;1092;22821;-69
2021/07/17 16:05:27;;;;;;;15.78;13.95;;;;;;;30.71;47.62;98394.27;260935;1093;23520;-68
2021/07/17 16:11:14;;;;;;;17.60;16.10;;;;;;;30.58;48.31;98392.64;260877;1092;22797;-68
2021/07/17 16:16:30;;;;;;;17.95;15.93;;;;;;;30.55;48.61;98403.34;260884;1093;22814;-68
2021/07/17 16:22:15;;;;;;;18.08;16.23;;;;;;;30.39;48.79;98400.58;260756;1093;22933;-70
2021/07/17 16:27:35;;;;;;;17.47;15.97;;;;;;;30.23;48.95;98414.38;260830;1091;22840;-68
2021/07/17 16:32:52;;;;;;;17.98;16.18;;;;;;;30.05;48.98;98412.79;260907;1092;22801;-68
2021/07/17 16:38:06;;;;;;;17.80;16.35;;;;;;;29.88;48.88;98417.51;260958;1093;25890;-69
2021/07/17 16:43:41;;;;;;;17.33;15.77;;;;;;;29.80;49.29;98413.31;261065;1093;22866;-68
2021/07/17 16:48:52;;;;;;;16.23;14.73;;;;;;;29.75;49.19;98411.08;261091;1092;25156;-68
2021/07/17 16:54:04;;;;;;;16.33;14.83;;;;;;;29.66;49.09;98420.71;260865;1092;22956;-69
2021/07/17 16:59:12;;;;;;;16.80;15.25;;;;;;;29.28;49.92;98431.31;261091;1092;22801;-68
2021/07/17 17:04:16;;;;;;;17.50;15.00;;;;;;;28.96;50.72;98432.66;260851;1093;22801;-69
2021/07/17 17:09:20;;;;;;;16.23;14.63;;;;;;;28.59;51.25;98439.95;260955;1091;22908;-70
2021/07/17 17:15:01;;;;;;;15.60;14.03;;;;;;;28.29;52.07;98438.83;261002;1093;22819;-68
2021/07/17 17:21:18;;;;;;;16.43;14.78;;;;;;;27.96;53.10;98452.25;260896;1092;22819;-69
2021/07/17 17:26:39;;;;;;;17.50;16.00;;;;;;;27.69;53.69;98452.19;260997;1092;22797;-69
2021/07/17 17:31:54;;;;;;;18.23;16.63;;;;;;;27.39;54.33;98448.98;260895;1092;23247;-69
2021/07/17 17:37:09;;;;;;;18.68;16.80;;;;;;;27.11;55.05;98431.60;260971;1091;27102;-69
2021/07/17 17:42:17;;;;;;;15.63;13.93;;;;;;;26.85;56.20;98437.72;261042;1093;26005;-68
2021/07/17 17:47:20;;;;;;;14.15;12.65;;;;;;;26.58;57.03;98441.05;260915;1093;22871;-68
2021/07/17 17:52:53;;;;;;;13.15;11.83;;;;;;;26.36;57.93;98449.46;261132;1093;22814;-68
2021/07/17 17:58:13;;;;;;;15.58;13.23;;;;;;;26.15;58.52;98455.88;260908;1093;22779;-67
2021/07/17 18:11:06;;;;;;;17.68;15.55;;;;;;;25.60;59.79;98474.52;260901;1093;25970;-68
2021/07/17 18:16:35;;;;;;;18.50;16.53;;;;;;;25.24;60.43;98476.53;260979;1093;22798;-71
2021/07/17 18:22:15;;;;;;;17.68;15.73;;;;;;;24.87;61.71;98472.25;261046;1093;22900;-68
2021/07/17 18:28:15;;;;;;;20.68;16.08;;;;;;;24.32;62.16;98487.04;260883;1093;22840;-69
2021/07/17 18:33:41;;;;;;;14.88;12.23;;;;;;;23.88;63.00;98502.52;260987;1093;22891;-69
2021/07/17 18:39:06;;;;;;;14.98;13.48;;;;;;;23.50;64.03;98494.48;260896;1092;24064;-68
2021/07/17 18:44:26;;;;;;;7.95;7.15;;;;;;;23.24;65.17;98484.59;261201;1093;22828;-69
2021/07/17 18:50:15;;;;;;;5.80;5.20;;;;;;;23.12;65.53;98482.16;260944;1092;22873;-69
2021/07/17 18:55:31;;;;;;;6.85;6.20;;;;;;;22.97;65.57;98506.61;260966;1092;25864;-68
2021/07/17 19:01:19;;;;;;;4.80;4.28;;;;;;;22.83;65.64;98510.01;260829;1091;22872;-69
2021/07/17 19:07:07;;;;;;;5.60;5.10;;;;;;;22.70;65.91;98522.36;261001;1091;22802;-69
2021/07/17 19:12:27;;;;;;;8.95;6.85;;;;;;;22.51;66.53;98531.52;260892;1092;23256;-68
2021/07/17 19:17:42;;;;;;;7.53;6.48;;;;;;;22.34;67.34;98519.27;260923;1092;22825;-69
2021/07/17 19:23:37;;;;;;;8.25;6.78;;;;;;;22.19;67.60;98507.39;260862;1093;22811;-69
2021/07/17 19:29:09;;;;;;;8.50;7.63;;;;;;;22.11;68.09;98503.78;260840;1093;22897;-69
2021/07/17 19:34:56;;;;;;;6.18;5.30;;;;;;;22.00;67.93;98505.61;260862;1092;22825;-68
2021/07/17 19:40:44;;;;;;;6.88;6.18;;;;;;;21.85;67.82;98512.81;260910;1093;22798;-70
2021/07/17 19:46:02;;;;;;;;;;;;;;;21.72;67.96;98503.31;260983;1093;26490;-69
2021/07/17 19:51:36;;;;;;;6.78;5.78;;;;;;;21.61;67.77;98503.94;261108;1092;22318;-71
2021/07/17 19:57:26;;;;;;;9.23;6.80;;;;;;;21.53;67.96;98516.70;260946;1093;27115;-69
2021/07/17 20:02:53;;;;;;;6.93;5.20;;;;;;;21.43;68.34;98516.50;260950;1093;22806;-67
2021/07/17 20:08:29;;;;;;;;;;;;;;;;;;;;;
2021/07/17 20:14:40;;;;;;;;;;;;;;;;;;;;;
2021/07/17 20:20:35;;;;;;;7.08;6.28;;;;;;;21.44;69.20;98524.31;260908;1093;24549;-69
2021/07/17 20:26:41;;;;;;;;;;;;;;;;;;;;;
2021/07/17 20:32:57;;;;;;;7.90;7.20;;;;;;;21.57;69.15;98494.92;260754;1093;22799;-68
2021/07/17 20:38:54;;;;;;;8.07;6.63;;;;;;;21.57;69.06;98491.42;260929;1093;22857;-69
2021/07/17 20:44:56;;;;;;;9.48;7.48;;;;;;;21.53;69.29;98513.97;260928;1092;22836;-67
2021/07/17 20:50:48;;;;;;;;;;;;;;;;;;;;;
2021/07/17 21:09:14;;;;;;;9.33;7.33;;;;;;;20.91;70.41;98524.27;260794;1093;22815;-68
2021/07/17 21:15:19;;;;;;;8.17;5.83;;;;;;;20.74;70.61;98520.09;260827;1091;22840;-68
2021/07/17 21:21:06;;;;;;;;;;;;;;;;;;;;;
2021/07/17 21:26:47;;;;;;;7.30;5.20;;;;;;;20.70;70.31;98500.20;260902;1092;22825;-69
2021/07/17 21:32:31;;;;;;;6.63;4.40;;;;;;;20.67;70.26;98491.59;260910;1093;25897;-68
2021/07/17 21:37:53;;;;;;;5.80;4.33;;;;;;;20.62;70.69;98501.96;260835;1093;22789;-69
2021/07/17 21:43:49;;;;;;;7.68;6.45;;;;;;;20.57;70.65;98505.00;260952;1092;22825;-69
2021/07/17 21:48:58;;;;;;;7.63;4.97;;;;;;;20.54;71.26;98514.67;260794;1093;22840;-69
2021/07/17 21:54:25;;;;;;;;;;;;;;;20.61;71.45;98522.95;261060;1093;22814;-71
2021/07/17 22:00:18;;;;;;;5.70;5.00;;;;;;;20.68;71.43;98514.95;260824;1093;21473;-69
2021/07/17 22:06:24;;;;;;;7.23;6.03;;;;;;;20.74;71.23;98520.88;260791;1093;22888;-69
2021/07/17 22:12:01;;;;;;;7.10;6.37;;;;;;;20.78;71.57;98516.28;260795;1092;22849;-69
2021/07/17 22:17:16;;;;;;;6.93;5.23;;;;;;;20.80;71.74;98513.99;261020;1093;22795;-68
2021/07/17 22:22:26;;;;;;;7.25;5.40;;;;;;;20.82;71.31;98508.96;260873;1093;22904;-69
2021/07/17 22:28:35;;;;;;;8.50;7.00;;;;;;;20.81;71.99;98510.10;260902;1093;22779;-71
2021/07/17 22:34:26;;;;;;;6.40;5.80;;;;;;;20.74;72.11;98509.98;261921;1093;22811;-69
2021/07/17 22:39:43;;;;;;;8.43;7.23;;;;;;;20.59;72.19;98508.91;260832;1093;22795;-69
2021/07/17 22:45:02;;;;;;;8.40;5.50;;;;;;;20.53;72.55;98504.16;260872;1093;22879;-68
2021/07/17 22:50:24;;;;;;;9.58;6.18;;;;;;;20.54;72.98;98513.86;260929;1093;22802;-69
2021/07/17 22:55:37;;;;;;;8.70;6.53;;;;;;;20.58;73.02;98517.44;260944;1093;22815;-69
2021/07/17 23:07:23;;;;;;;8.75;6.60;;;;;;;20.47;73.60;98509.10;260847;1093;22815;-69
2021/07/17 23:13:08;;;;;;;8.08;6.25;;;;;;;20.39;73.76;98499.23;261047;1093;23025;-70
2021/07/17 23:19:02;;;;;;;8.77;7.83;;;;;;;20.28;74.03;98516.13;261874;1092;26139;-69
2021/07/17 23:24:31;;;;;;;8.55;7.43;;;;;;;20.22;74.63;98506.69;260940;1092;26424;-69
2021/07/17 23:29:57;;;;;;;10.60;7.40;;;;;;;20.15;74.79;98504.61;260871;1092;22819;-69
2021/07/17 23:35:52;;;;;;;7.80;7.00;;;;;;;20.16;74.92;98502.67;260762;1093;26002;-69
2021/07/17 23:41:56;;;;;;;8.07;6.87;;;;;;;20.17;75.31;98496.09;260828;1093;22811;-68
2021/07/17 23:47:48;;;;;;;10.70;9.60;;;;;;;20.13;75.28;98487.88;260956;1093;22795;-69
2021/07/17 23:53:47;;;;;;;10.25;8.30;;;;;;;20.15;75.77;98485.58;260891;1093;23020;-69
2021/07/17 23:59:02;;;;;;;11.50;8.07;;;;;;;20.15;75.94;98487.52;260830;1093;26002;-70
